createdAt,value
2019-01-20T00:00:50.655Z,95.70
2019-01-20T00:03:18.907Z,95.90
2019-01-20T00:05:47.129Z,95.90
2019-01-20T00:08:15.373Z,95.90
2019-01-20T00:10:43.594Z,96.10
2019-01-20T00:13:11.804Z,96.00
2019-01-20T00:15:40.583Z,96.20
2019-01-20T00:18:08.818Z,96.20
2019-01-20T00:20:37.070Z,96.20
2019-01-20T00:23:05.298Z,96.20
2019-01-20T00:25:33.570Z,96.30
2019-01-20T00:28:01.776Z,96.30
2019-01-20T00:30:29.974Z,96.30
2019-01-20T00:32:58.439Z,96.50
2019-01-20T00:35:26.651Z,96.30
2019-01-20T00:37:54.860Z,96.40
2019-01-20T00:40:23.078Z,96.60
2019-01-20T00:42:51.287Z,96.50
2019-01-20T00:45:19.497Z,96.40
2019-01-20T00:47:47.751Z,96.60
2019-01-20T00:50:16.547Z,96.60
2019-01-20T00:52:44.762Z,96.60
2019-01-20T00:55:15.820Z,96.60
2019-01-20T00:57:44.263Z,96.60
2019-01-20T01:00:27.248Z,96.50
2019-01-20T01:02:55.472Z,96.60
2019-01-20T01:05:23.663Z,96.50
2019-01-20T01:07:51.905Z,96.40
2019-01-20T01:10:20.148Z,96.10
2019-01-20T01:12:51.749Z,96.20
2019-01-20T01:15:20.018Z,96.50
2019-01-20T01:17:48.214Z,96.40
2019-01-20T01:20:18.396Z,96.20
2019-01-20T01:22:46.654Z,96.30
2019-01-20T01:25:16.116Z,96.40
2019-01-20T01:27:45.972Z,96.20
2019-01-20T01:30:18.964Z,96.20
2019-01-20T01:32:47.174Z,96.00
2019-01-20T01:35:15.381Z,95.80
2019-01-20T01:37:43.632Z,95.80
2019-01-20T01:40:16.154Z,95.80
2019-01-20T01:42:44.366Z,95.70
2019-01-20T01:45:19.634Z,95.70
2019-01-20T01:47:47.852Z,95.80
2019-01-20T01:50:16.823Z,95.80
2019-01-20T01:52:45.080Z,95.90
2019-01-20T01:55:13.284Z,96.10
2019-01-20T01:57:41.486Z,96.10
2019-01-20T02:00:17.907Z,96.10
2019-01-20T02:02:46.124Z,96.20
2019-01-20T02:05:14.311Z,96.50
2019-01-20T02:07:42.550Z,96.10
2019-01-20T02:10:13.518Z,96.20
2019-01-20T02:12:41.795Z,96.20
2019-01-20T02:15:12.262Z,96.10
2019-01-20T02:17:40.460Z,96.20
2019-01-20T02:20:11.405Z,96.20
2019-01-20T02:22:39.685Z,96.20
2019-01-20T02:25:07.933Z,96.30
2019-01-20T02:27:36.168Z,96.40
2019-01-20T02:30:08.241Z,96.30
2019-01-20T02:32:36.719Z,96.60
2019-01-20T02:35:05.813Z,96.10
2019-01-20T02:37:34.083Z,96.10
2019-01-20T02:40:02.584Z,96.20
2019-01-20T02:42:31.999Z,96.30
2019-01-20T02:45:00.476Z,96.50
2019-01-20T02:47:28.799Z,96.40
2019-01-20T02:49:57.049Z,96.30
2019-01-20T02:52:25.325Z,96.30
2019-01-20T02:54:53.573Z,96.30
2019-01-20T02:57:21.812Z,96.00
2019-01-20T02:59:50.117Z,96.00
2019-01-20T03:02:18.349Z,96.20
2019-01-20T03:04:46.573Z,96.00
2019-01-20T03:07:14.833Z,96.10
2019-01-20T03:09:43.064Z,96.10
2019-01-20T03:12:11.308Z,96.10
2019-01-20T03:14:39.567Z,96.20
2019-01-20T03:17:07.810Z,96.30
2019-01-20T03:19:36.096Z,96.20
2019-01-20T03:22:04.484Z,96.10
2019-01-20T03:24:32.737Z,96.00
2019-01-20T03:27:00.976Z,95.80
2019-01-20T03:29:29.232Z,95.80
2019-01-20T03:31:57.492Z,95.90
2019-01-20T03:34:25.720Z,95.70
2019-01-20T03:36:54.056Z,95.70
2019-01-20T03:39:22.294Z,96.10
2019-01-20T03:41:50.535Z,95.80
2019-01-20T03:44:18.867Z,96.10
2019-01-20T03:46:48.403Z,96.10
2019-01-20T03:49:16.925Z,95.70
2019-01-20T03:51:45.194Z,95.60
2019-01-20T03:54:13.429Z,95.70
2019-01-20T03:56:41.664Z,95.80
2019-01-20T03:59:12.235Z,95.60
2019-01-20T04:01:39.888Z,95.70
2019-01-20T04:04:08.136Z,95.60
2019-01-20T04:06:36.420Z,95.80
2019-01-20T04:09:07.316Z,95.90
2019-01-20T04:11:35.541Z,96.10
2019-01-20T04:14:23.229Z,95.90
2019-01-20T04:16:51.459Z,95.70
2019-01-20T04:19:19.694Z,95.80
2019-01-20T04:21:47.952Z,95.60
2019-01-20T04:24:16.192Z,95.70
2019-01-20T04:26:44.418Z,95.60
2019-01-20T04:29:12.696Z,95.50
2019-01-20T04:31:40.931Z,95.50
2019-01-20T04:34:09.164Z,95.30
2019-01-20T04:36:37.439Z,95.20
2019-01-20T04:39:06.454Z,95.20
2019-01-20T04:41:34.729Z,95.20
2019-01-20T04:44:02.992Z,95.30
2019-01-20T04:46:31.245Z,95.30
2019-01-20T04:48:59.475Z,95.30
2019-01-20T04:51:27.746Z,95.20
2019-01-20T04:53:56.068Z,95.20
2019-01-20T04:56:24.290Z,95.40
2019-01-20T04:58:52.596Z,95.40
2019-01-20T05:01:20.888Z,95.90
2019-01-20T05:03:49.399Z,95.70
2019-01-20T05:06:17.946Z,95.80
2019-01-20T05:08:46.180Z,95.90
2019-01-20T05:11:14.451Z,96.00
2019-01-20T05:13:42.785Z,95.80
2019-01-20T05:16:11.012Z,95.80
2019-01-20T05:18:39.254Z,95.80
2019-01-20T05:21:07.508Z,95.90
2019-01-20T05:23:35.770Z,96.00
2019-01-20T05:26:04.022Z,96.10
2019-01-20T05:28:32.283Z,95.80
2019-01-20T05:31:00.535Z,95.70
2019-01-20T05:33:28.761Z,95.40
2019-01-20T05:35:57.019Z,95.50
2019-01-20T05:38:25.269Z,95.80
2019-01-20T05:40:53.477Z,96.00
2019-01-20T05:43:21.737Z,95.90
2019-01-20T05:45:49.982Z,96.00
2019-01-20T05:48:18.201Z,96.20
2019-01-20T05:50:46.476Z,95.80
2019-01-20T05:53:14.720Z,95.60
2019-01-20T05:55:42.944Z,95.60
2019-01-20T05:58:11.215Z,95.40
2019-01-20T06:00:39.441Z,95.20
2019-01-20T06:03:07.668Z,95.20
2019-01-20T06:05:35.937Z,95.20
2019-01-20T06:08:04.238Z,95.20
2019-01-20T06:10:32.459Z,95.40
2019-01-20T06:13:00.720Z,95.40
2019-01-20T06:15:28.961Z,95.60
2019-01-20T06:17:57.250Z,95.70
2019-01-20T06:20:25.508Z,95.60
2019-01-20T06:22:53.756Z,95.80
2019-01-20T06:25:22.021Z,95.90
2019-01-20T06:27:50.296Z,95.80
2019-01-20T06:30:31.327Z,95.80
2019-01-20T06:32:59.589Z,96.00
2019-01-20T06:35:27.866Z,96.10
2019-01-20T06:37:56.100Z,95.90
2019-01-20T06:40:24.348Z,95.90
2019-01-20T06:42:52.592Z,95.90
2019-01-20T06:45:20.928Z,95.80
2019-01-20T06:47:49.152Z,95.70
2019-01-20T06:50:18.650Z,95.60
2019-01-20T06:52:46.889Z,95.70
2019-01-20T06:55:15.164Z,95.70
2019-01-20T06:57:43.388Z,95.60
2019-01-20T07:00:20.042Z,95.70
2019-01-20T07:02:48.272Z,95.60
2019-01-20T07:05:16.511Z,95.60
2019-01-20T07:07:44.779Z,95.70
2019-01-20T07:10:15.068Z,95.80
2019-01-20T07:12:43.332Z,95.80
2019-01-20T07:15:14.683Z,96.10
2019-01-20T07:17:42.932Z,96.20
2019-01-20T07:20:12.584Z,95.90
2019-01-20T07:22:40.869Z,95.90
2019-01-20T07:25:09.112Z,95.80
2019-01-20T07:27:37.348Z,95.80
2019-01-20T07:30:13.606Z,95.80
2019-01-20T07:32:41.836Z,95.90
2019-01-20T07:35:10.173Z,95.90
2019-01-20T07:37:38.397Z,96.10
2019-01-20T07:40:09.895Z,95.90
2019-01-20T07:42:38.134Z,95.70
2019-01-20T07:45:09.419Z,95.30
2019-01-20T07:47:37.647Z,95.20
2019-01-20T07:50:09.139Z,95.10
2019-01-20T07:52:37.390Z,95.10
2019-01-20T07:55:08.367Z,94.50
2019-01-20T07:57:36.632Z,94.40
2019-01-20T08:00:08.264Z,94.40
2019-01-20T08:02:36.521Z,94.20
2019-01-20T08:05:06.610Z,93.50
2019-01-20T08:07:34.882Z,93.30
2019-01-20T08:10:05.453Z,93.40
2019-01-20T08:12:33.685Z,93.00
2019-01-20T08:15:01.997Z,93.30
2019-01-20T08:17:30.251Z,93.30
2019-01-20T08:19:58.499Z,92.90
2019-01-20T08:22:26.732Z,93.10
2019-01-20T08:24:54.991Z,93.30
2019-01-20T08:27:23.232Z,93.10
2019-01-20T08:29:51.489Z,92.80
2019-01-20T08:32:19.725Z,92.60
2019-01-20T08:34:47.971Z,92.90
2019-01-20T08:37:16.249Z,92.60
2019-01-20T08:39:44.467Z,92.90
2019-01-20T08:42:12.741Z,93.10
2019-01-20T08:44:40.971Z,93.20
2019-01-20T08:47:10.852Z,93.20
2019-01-20T08:49:39.088Z,93.10
2019-01-20T08:52:07.349Z,93.20
2019-01-20T08:54:35.600Z,92.90
2019-01-20T08:57:03.833Z,93.40
2019-01-20T08:59:32.080Z,92.80
2019-01-20T09:02:00.343Z,92.30
2019-01-20T09:04:28.592Z,92.70
2019-01-20T09:06:56.905Z,92.60
2019-01-20T09:09:25.432Z,92.50
2019-01-20T09:11:53.738Z,92.80
2019-01-20T09:14:21.969Z,93.00
2019-01-20T09:16:50.273Z,93.20
2019-01-20T09:19:18.488Z,93.10
2019-01-20T09:21:46.757Z,93.10
2019-01-20T09:24:14.989Z,92.10
2019-01-20T09:26:43.301Z,92.50
2019-01-20T09:29:11.541Z,91.80
2019-01-20T09:31:39.782Z,92.10
2019-01-20T09:34:08.473Z,91.90
2019-01-20T09:36:36.703Z,92.90
2019-01-20T09:39:08.624Z,92.20
2019-01-20T09:41:36.883Z,93.00
2019-01-20T09:44:05.112Z,92.80
2019-01-20T09:46:33.348Z,93.10
2019-01-20T09:49:01.617Z,92.90
2019-01-20T09:51:29.845Z,92.70
2019-01-20T09:53:58.085Z,92.80
2019-01-20T09:56:26.365Z,92.70
2019-01-20T09:58:54.605Z,92.50
2019-01-20T10:01:22.889Z,91.90
2019-01-20T10:03:51.206Z,92.10
2019-01-20T10:06:19.476Z,92.20
2019-01-20T10:08:47.715Z,92.50
2019-01-20T10:11:15.980Z,92.40
2019-01-20T10:13:44.213Z,92.00
2019-01-20T10:16:12.454Z,92.50
2019-01-20T10:18:40.713Z,92.80
2019-01-20T10:21:08.960Z,93.00
2019-01-20T10:23:37.248Z,93.10
2019-01-20T10:26:05.486Z,92.70
2019-01-20T10:28:33.755Z,93.10
2019-01-20T10:31:01.992Z,93.10
2019-01-20T10:33:31.242Z,93.00
2019-01-20T10:36:01.169Z,92.30
2019-01-20T10:38:29.407Z,92.50
2019-01-20T10:40:57.680Z,92.40
2019-01-20T10:43:25.981Z,92.30
2019-01-20T10:45:54.233Z,92.20
2019-01-20T10:48:22.467Z,92.60
2019-01-20T10:50:50.730Z,92.70
2019-01-20T10:53:18.973Z,92.40
2019-01-20T10:55:47.246Z,92.50
2019-01-20T10:58:15.505Z,92.70
2019-01-20T11:00:43.772Z,92.10
2019-01-20T11:03:12.347Z,92.20
2019-01-20T11:05:40.587Z,92.10
2019-01-20T11:08:08.893Z,92.20
2019-01-20T11:10:37.128Z,92.20
2019-01-20T11:13:05.572Z,92.40
2019-01-20T11:15:33.798Z,92.40
2019-01-20T11:18:02.100Z,92.30
2019-01-20T11:20:30.368Z,91.80
2019-01-20T11:22:58.591Z,91.80
2019-01-20T11:25:32.414Z,91.90
2019-01-20T11:28:00.701Z,91.70
2019-01-20T11:30:29.019Z,91.70
2019-01-20T11:32:57.251Z,91.90
2019-01-20T11:35:25.524Z,91.70
2019-01-20T11:37:53.757Z,91.50
2019-01-20T11:40:22.012Z,91.60
2019-01-20T11:42:50.285Z,91.70
2019-01-20T11:45:21.545Z,91.70
2019-01-20T11:47:49.856Z,91.10
2019-01-20T11:50:18.440Z,91.00
2019-01-20T11:52:46.709Z,91.30
2019-01-20T11:55:20.083Z,91.20
2019-01-20T11:57:48.436Z,91.30
2019-01-20T12:00:28.813Z,90.90
2019-01-20T12:02:57.165Z,90.60
2019-01-20T12:05:25.476Z,91.60
2019-01-20T12:07:54.304Z,91.40
2019-01-20T12:10:23.992Z,90.90
2019-01-20T12:12:53.872Z,90.80
2019-01-20T12:15:22.113Z,91.40
2019-01-20T12:17:50.382Z,91.50
2019-01-20T12:20:18.649Z,91.90
2019-01-20T12:22:46.877Z,91.90
2019-01-20T12:25:17.115Z,91.20
2019-01-20T12:27:45.345Z,90.20
2019-01-20T12:30:16.839Z,90.40
2019-01-20T12:32:45.091Z,91.40
2019-01-20T12:35:13.467Z,90.90
2019-01-20T12:37:41.739Z,90.90
2019-01-20T12:40:21.930Z,90.70
2019-01-20T12:42:50.183Z,90.60
2019-01-20T12:45:18.432Z,90.80
2019-01-20T12:47:46.691Z,90.70
2019-01-20T12:50:17.174Z,90.60
2019-01-20T12:52:45.416Z,90.00
2019-01-20T12:55:14.992Z,91.20
2019-01-20T12:57:43.250Z,90.80
2019-01-20T13:00:18.988Z,90.50
2019-01-20T13:02:47.403Z,90.30
2019-01-20T13:05:15.752Z,90.00
2019-01-20T13:07:43.983Z,90.80
2019-01-20T13:10:14.632Z,91.10
2019-01-20T13:12:42.887Z,90.70
2019-01-20T13:15:13.582Z,90.40
2019-01-20T13:17:41.828Z,91.00
2019-01-20T13:20:13.180Z,90.60
2019-01-20T13:22:41.409Z,91.20
2019-01-20T13:25:12.320Z,90.50
2019-01-20T13:27:41.061Z,90.80
2019-01-20T13:30:12.497Z,91.40
2019-01-20T13:32:40.725Z,91.20
2019-01-20T13:35:10.441Z,91.30
2019-01-20T13:37:41.897Z,91.40
2019-01-20T13:40:19.161Z,91.10
2019-01-20T13:42:47.457Z,91.50
2019-01-20T13:45:15.702Z,91.60
2019-01-20T13:47:48.654Z,91.90
2019-01-20T13:50:16.705Z,91.80
2019-01-20T13:52:44.953Z,91.60
2019-01-20T13:55:15.153Z,91.40
2019-01-20T13:57:43.379Z,91.00
2019-01-20T14:00:25.240Z,91.10
2019-01-20T14:02:53.493Z,91.20
2019-01-20T14:05:21.778Z,90.80
2019-01-20T14:07:50.095Z,90.80
2019-01-20T14:10:23.693Z,91.10
2019-01-20T14:12:51.938Z,91.40
2019-01-20T14:15:20.232Z,91.30
2019-01-20T14:17:48.508Z,91.40
2019-01-20T14:20:24.787Z,91.00
2019-01-20T14:22:53.024Z,90.40
2019-01-20T14:25:26.446Z,90.90
2019-01-20T14:27:54.688Z,91.30
2019-01-20T14:30:25.259Z,91.00
2019-01-20T14:32:53.617Z,91.60
2019-01-20T14:35:21.860Z,90.80
2019-01-20T14:37:50.117Z,91.00
2019-01-20T14:40:20.383Z,90.70
2019-01-20T14:42:49.390Z,90.00
2019-01-20T14:45:18.803Z,90.00
2019-01-20T14:47:47.120Z,90.20
2019-01-20T14:50:20.566Z,90.40
2019-01-20T14:52:48.804Z,90.20
2019-01-20T14:55:17.113Z,90.30
2019-01-20T14:57:45.413Z,90.40
2019-01-20T15:00:16.927Z,90.10
2019-01-20T15:02:45.234Z,90.50
2019-01-20T15:05:13.576Z,90.80
2019-01-20T15:07:41.849Z,90.60
2019-01-20T15:10:12.846Z,90.80
2019-01-20T15:12:41.102Z,90.90
2019-01-20T15:15:12.518Z,90.70
2019-01-20T15:17:40.804Z,90.90
2019-01-20T15:20:11.443Z,91.10
2019-01-20T15:22:39.668Z,91.10
2019-01-20T15:25:13.735Z,91.10
2019-01-20T15:27:42.006Z,91.40
2019-01-20T15:30:17.821Z,91.50
2019-01-20T15:32:46.170Z,91.70
2019-01-20T15:35:14.468Z,91.80
2019-01-20T15:37:42.746Z,91.80
2019-01-20T15:40:16.547Z,92.00
2019-01-20T15:42:44.780Z,91.80
2019-01-20T15:45:16.554Z,92.00
2019-01-20T15:47:48.103Z,92.40
2019-01-20T15:50:28.059Z,92.00
2019-01-20T15:52:56.306Z,91.80
2019-01-20T15:55:24.610Z,91.90
2019-01-20T15:57:52.940Z,91.80
2019-01-20T16:00:23.311Z,92.00
2019-01-20T16:02:51.587Z,91.90
2019-01-20T16:05:19.833Z,91.80
2019-01-20T16:07:49.040Z,91.90
2019-01-20T16:10:17.669Z,91.60
2019-01-20T16:12:46.785Z,91.70
2019-01-20T16:15:24.190Z,91.80
2019-01-20T16:17:48.413Z,92.10
2019-01-20T16:20:18.446Z,92.10
2019-01-20T16:22:46.723Z,92.00
2019-01-20T16:25:17.520Z,91.90
2019-01-20T16:27:45.763Z,92.00
2019-01-20T16:30:17.088Z,92.00
2019-01-20T16:32:45.340Z,92.00
2019-01-20T16:35:14.048Z,92.10
2019-01-20T16:37:42.328Z,92.00
2019-01-20T16:40:16.432Z,92.10
2019-01-20T16:42:44.664Z,92.30
2019-01-20T16:45:15.337Z,92.30
2019-01-20T16:47:43.618Z,92.30
2019-01-20T16:50:15.132Z,92.50
2019-01-20T16:52:43.416Z,92.60
2019-01-20T16:55:12.794Z,92.80
2019-01-20T16:57:42.267Z,92.80
2019-01-20T17:00:16.161Z,92.60
2019-01-20T17:02:44.415Z,92.60
2019-01-20T17:05:13.512Z,92.90
2019-01-20T17:07:41.829Z,92.80
2019-01-20T17:10:13.424Z,92.70
2019-01-20T17:12:41.676Z,92.40
2019-01-20T17:15:13.421Z,92.40
2019-01-20T17:17:41.668Z,92.50
2019-01-20T17:20:11.483Z,92.30
2019-01-20T17:22:39.725Z,92.50
2019-01-20T17:25:10.348Z,92.30
2019-01-20T17:27:38.613Z,92.30
2019-01-20T17:30:16.093Z,92.50
2019-01-20T17:32:44.319Z,92.10
2019-01-20T17:35:12.572Z,92.40
2019-01-20T17:37:40.834Z,92.30
2019-01-20T17:40:17.054Z,92.20
2019-01-20T17:42:45.318Z,92.10
2019-01-20T17:45:17.049Z,92.00
2019-01-20T17:47:45.303Z,92.00
2019-01-20T17:50:16.974Z,91.80
2019-01-20T17:52:45.223Z,91.60
2019-01-20T17:55:13.474Z,91.60
2019-01-20T17:57:41.721Z,91.70
2019-01-20T18:00:28.834Z,91.60
2019-01-20T18:02:57.100Z,91.60
2019-01-20T18:05:27.033Z,91.70
2019-01-20T18:07:55.364Z,92.00
2019-01-20T18:10:23.637Z,92.20
2019-01-20T18:12:53.321Z,91.90
2019-01-20T18:15:24.359Z,92.20
2019-01-20T18:17:53.458Z,92.20
2019-01-20T18:20:29.481Z,92.30
2019-01-20T18:22:57.803Z,92.40
2019-01-20T18:25:26.055Z,92.40
2019-01-20T18:27:54.326Z,92.20
2019-01-20T18:30:27.769Z,92.20
2019-01-20T18:32:56.058Z,91.90
2019-01-20T18:35:25.717Z,92.10
2019-01-20T18:37:53.980Z,92.00
2019-01-20T18:40:23.556Z,92.20
2019-01-20T18:42:51.831Z,92.40
2019-01-20T18:45:23.056Z,92.50
2019-01-20T18:47:51.331Z,92.20
2019-01-20T18:50:22.325Z,92.30
2019-01-20T18:52:50.569Z,92.20
2019-01-20T18:55:19.960Z,92.20
2019-01-20T18:57:48.408Z,92.20
2019-01-20T19:00:19.945Z,92.20
2019-01-20T19:02:48.182Z,92.10
2019-01-20T19:05:17.496Z,92.30
2019-01-20T19:07:45.732Z,92.20
2019-01-20T19:10:19.043Z,92.20
2019-01-20T19:12:47.308Z,92.10
2019-01-20T19:15:18.149Z,92.10
2019-01-20T19:17:46.419Z,92.10
2019-01-20T19:20:17.661Z,92.20
2019-01-20T19:22:46.591Z,92.60
2019-01-20T19:25:14.826Z,92.40
2019-01-20T19:27:43.103Z,92.20
2019-01-20T19:30:19.937Z,92.50
2019-01-20T19:32:48.219Z,92.30
2019-01-20T19:35:16.452Z,92.20
2019-01-20T19:37:44.689Z,92.20
2019-01-20T19:40:14.629Z,92.10
2019-01-20T19:42:42.877Z,92.00
2019-01-20T19:45:16.386Z,92.40
2019-01-20T19:47:44.653Z,92.70
2019-01-20T19:50:14.481Z,92.50
2019-01-20T19:52:42.728Z,92.40
2019-01-20T19:55:24.029Z,92.20
2019-01-20T19:57:52.636Z,92.30
2019-01-20T20:00:29.019Z,92.00
2019-01-20T20:02:57.251Z,92.20
2019-01-20T20:05:25.535Z,92.00
2019-01-20T20:07:54.776Z,92.10
2019-01-20T20:10:24.904Z,92.20
2019-01-20T20:12:54.873Z,92.20
2019-01-20T20:15:25.207Z,92.00
2019-01-20T20:17:53.560Z,92.20
2019-01-20T20:20:21.966Z,92.70
2019-01-20T20:22:50.298Z,92.20
2019-01-20T20:25:20.206Z,92.40
2019-01-20T20:27:48.473Z,92.50
2019-01-20T20:30:22.276Z,92.30
2019-01-20T20:32:50.641Z,92.30
2019-01-20T20:35:18.917Z,92.50
2019-01-20T20:37:47.166Z,92.40
2019-01-20T20:40:17.563Z,92.40
2019-01-20T20:42:45.842Z,92.40
2019-01-20T20:45:16.462Z,92.40
2019-01-20T20:47:44.770Z,92.40
2019-01-20T20:50:14.691Z,92.30
2019-01-20T20:52:46.102Z,92.30
2019-01-20T20:55:13.104Z,92.70
2019-01-20T20:57:41.339Z,92.60
2019-01-20T21:00:15.681Z,92.60
2019-01-20T21:02:43.928Z,92.60
2019-01-20T21:05:12.185Z,92.60
2019-01-20T21:07:40.454Z,92.80
2019-01-20T21:10:14.539Z,93.10
2019-01-20T21:12:46.031Z,92.60
2019-01-20T21:15:16.797Z,92.50
2019-01-20T21:17:48.262Z,92.50
2019-01-20T21:20:21.126Z,92.40
2019-01-20T21:22:49.488Z,92.80
2019-01-20T21:25:17.720Z,92.70
2019-01-20T21:27:45.948Z,92.70
2019-01-20T21:30:23.377Z,92.60
2019-01-20T21:32:51.674Z,92.70
2019-01-20T21:35:19.904Z,92.60
2019-01-20T21:37:48.189Z,92.40
2019-01-20T21:40:18.053Z,92.60
2019-01-20T21:42:46.279Z,93.00
2019-01-20T21:45:15.980Z,92.70
2019-01-20T21:47:44.221Z,92.70
2019-01-20T21:50:15.588Z,92.70
2019-01-20T21:52:43.859Z,92.80
2019-01-20T21:55:12.255Z,92.80
2019-01-20T21:57:40.504Z,92.80
2019-01-20T22:00:15.154Z,92.80
2019-01-20T22:02:43.371Z,92.80
2019-01-20T22:05:11.636Z,93.00
2019-01-20T22:07:39.910Z,93.30
2019-01-20T22:10:11.423Z,93.50
2019-01-20T22:12:39.665Z,93.80
2019-01-20T22:15:09.281Z,94.10
2019-01-20T22:17:37.662Z,94.10
2019-01-20T22:20:09.096Z,94.10
2019-01-20T22:22:37.356Z,93.90
2019-01-20T22:25:07.440Z,94.20
2019-01-20T22:27:35.689Z,94.50
2019-01-20T22:30:05.612Z,94.70
2019-01-20T22:32:33.848Z,94.80
2019-01-20T22:35:02.080Z,94.90
2019-01-20T22:37:30.340Z,95.00
2019-01-20T22:39:58.584Z,95.10
2019-01-20T22:42:26.837Z,95.10
2019-01-20T22:44:55.082Z,95.00
2019-01-20T22:47:23.348Z,95.00
2019-01-20T22:49:51.584Z,95.20
2019-01-20T22:52:19.866Z,95.00
2019-01-20T22:54:48.096Z,94.80
2019-01-20T22:57:16.337Z,94.80
2019-01-20T22:59:44.593Z,94.70
2019-01-20T23:02:12.831Z,94.90
2019-01-20T23:04:41.101Z,94.90
2019-01-20T23:07:09.387Z,94.90
2019-01-20T23:09:37.689Z,95.10
2019-01-20T23:12:06.017Z,95.10
2019-01-20T23:14:34.248Z,95.20
2019-01-20T23:17:07.624Z,94.90
2019-01-20T23:19:32.462Z,94.70
2019-01-20T23:22:00.692Z,94.80
2019-01-20T23:24:28.929Z,94.90
2019-01-20T23:26:57.204Z,94.90
2019-01-20T23:29:25.455Z,95.10
2019-01-20T23:31:53.680Z,95.30
2019-01-20T23:34:21.946Z,95.20
2019-01-20T23:36:50.179Z,95.20
2019-01-20T23:39:21.080Z,95.00
2019-01-20T23:41:50.973Z,94.80
2019-01-20T23:44:19.210Z,94.90
2019-01-20T23:46:47.457Z,94.80
2019-01-20T23:49:15.745Z,94.80
2019-01-20T23:51:44.027Z,94.80
2019-01-20T23:54:12.366Z,94.80
2019-01-20T23:56:40.618Z,94.80
2019-01-20T23:59:08.860Z,94.70
